createdAt,value
2023-04-01T00:02:27.936Z,96988.19
2023-04-01T00:05:11.179Z,96988.31
2023-04-01T00:07:45.325Z,96987.86
2023-04-01T00:10:17.674Z,96981.19
2023-04-01T00:12:54.836Z,96973.61
2023-04-01T00:15:47.693Z,96974.80
2023-04-01T00:18:25.722Z,96976.33
2023-04-01T00:21:00.116Z,96973.17
2023-04-01T00:23:52.816Z,96974.13
2023-04-01T00:26:45.656Z,96972.09
2023-04-01T00:29:31.536Z,96964.94
2023-04-01T00:32:04.045Z,96967.95
2023-04-01T00:34:56.493Z,96969.71
2023-04-01T00:37:32.434Z,96974.61
2023-04-01T00:40:09.252Z,96973.50
2023-04-01T00:42:41.241Z,96974.51
2023-04-01T00:45:37.262Z,96965.98
2023-04-01T00:48:16.257Z,96966.61
2023-04-01T00:51:11.883Z,96966.83
2023-04-01T00:53:55.277Z,96977.69
2023-04-01T00:56:52.383Z,96976.91
2023-04-01T00:59:27.657Z,96979.97
2023-04-01T01:02:02.950Z,96973.27
2023-04-01T01:04:40.522Z,96973.92
2023-04-01T01:07:44.362Z,96971.70
2023-04-01T01:10:22.718Z,96973.59
2023-04-01T01:13:09.309Z,96972.36
2023-04-01T01:16:06.667Z,96972.62
2023-04-01T01:19:07.308Z,96970.42
2023-04-01T01:22:18.962Z,96969.23
2023-04-01T01:25:32.369Z,96974.71
2023-04-01T01:28:46.655Z,96971.98
2023-04-01T01:31:47.489Z,96964.73
2023-04-01T01:34:50.334Z,96962.90
2023-04-01T01:37:45.479Z,96963.16
2023-04-01T01:40:38.801Z,96958.35
2023-04-01T01:43:34.437Z,96961.92
2023-04-01T01:46:26.227Z,96959.73
2023-04-01T01:49:20.671Z,96954.08
2023-04-01T01:52:13.226Z,96948.34
2023-04-01T01:54:57.178Z,96951.55
2023-04-01T01:57:49.286Z,96952.83
2023-04-01T02:00:42.629Z,96952.23
2023-04-01T02:03:37.839Z,96948.86
2023-04-01T02:06:34.918Z,96954.98
2023-04-01T02:09:27.085Z,96958.67
2023-04-01T02:12:21.318Z,96956.95
2023-04-01T02:15:16.694Z,96961.02
2023-04-01T02:18:05.949Z,96967.94
2023-04-01T02:21:00.264Z,96968.52
2023-04-01T02:23:55.233Z,96967.70
2023-04-01T02:26:48.744Z,96967.76
2023-04-01T02:29:41.363Z,96974.84
2023-04-01T02:32:15.032Z,96981.59
2023-04-01T02:35:09.186Z,96980.16
2023-04-01T02:38:01.670Z,96981.32
2023-04-01T02:40:59.382Z,96989.54
2023-04-01T02:43:51.373Z,96992.98
2023-04-01T02:46:43.586Z,96996.20
2023-04-01T02:49:35.732Z,96996.45
2023-04-01T02:52:27.785Z,96994.64
2023-04-01T02:55:20.131Z,96999.22
2023-04-01T02:57:55.041Z,96998.77
2023-04-01T03:00:30.325Z,96998.55
2023-04-01T03:03:22.350Z,96995.71
2023-04-01T03:06:16.636Z,96998.70
2023-04-01T03:08:49.187Z,96998.15
2023-04-01T03:11:41.802Z,96997.77
2023-04-01T03:14:33.819Z,96999.09
2023-04-01T03:17:26.092Z,96994.59
2023-04-01T03:20:00.539Z,96995.86
2023-04-01T03:22:52.501Z,96995.73
2023-04-01T03:25:44.482Z,96996.61
2023-04-01T03:28:36.572Z,96996.52
2023-04-01T03:31:29.040Z,97003.97
2023-04-01T03:34:12.396Z,96999.98
2023-04-01T03:37:04.375Z,97001.02
2023-04-01T03:39:36.375Z,97000.02
2023-04-01T03:42:28.412Z,97001.77
2023-04-01T03:45:18.150Z,97002.92
2023-04-01T03:48:10.228Z,96997.75
2023-04-01T03:50:45.672Z,97001.48
2023-04-01T03:53:37.823Z,96997.36
2023-04-01T03:56:29.856Z,96996.80
2023-04-01T03:59:21.871Z,96993.80
2023-04-01T04:02:13.899Z,96995.12
2023-04-01T04:05:07.962Z,96997.67
2023-04-01T04:07:59.939Z,96997.29
2023-04-01T04:10:58.269Z,97000.28
2023-04-01T04:13:50.523Z,97002.50
2023-04-01T04:16:42.568Z,97002.10
2023-04-01T04:19:36.525Z,97004.73
2023-04-01T04:22:28.675Z,97000.39
2023-04-01T04:25:20.922Z,97000.88
2023-04-01T04:27:55.174Z,97001.23
2023-04-01T04:30:38.108Z,96999.14
2023-04-01T04:33:30.332Z,96997.16
2023-04-01T04:36:11.799Z,96999.15
2023-04-01T04:39:04.596Z,96997.30
2023-04-01T04:41:56.524Z,96999.23
2023-04-01T04:44:48.555Z,96998.66
2023-04-01T04:47:40.796Z,97000.31
2023-04-01T04:50:32.752Z,97001.48
2023-04-01T04:53:26.455Z,97003.30
2023-04-01T04:56:21.345Z,97003.33
2023-04-01T04:58:56.516Z,97006.11
2023-04-01T05:01:48.555Z,97006.83
2023-04-01T05:04:40.835Z,97010.31
2023-04-01T05:07:32.790Z,97010.69
2023-04-01T05:10:24.766Z,97017.33
2023-04-01T05:13:12.881Z,97017.14
2023-04-01T05:16:02.257Z,97016.11
2023-04-01T05:18:54.205Z,97013.71
2023-04-01T05:21:46.152Z,97013.77
2023-04-01T05:24:38.254Z,97010.64
2023-04-01T05:27:30.295Z,97010.84
2023-04-01T05:30:22.406Z,97013.61
2023-04-01T05:33:14.987Z,97016.00
2023-04-01T05:36:12.161Z,97015.02
2023-04-01T05:39:04.524Z,97017.20
2023-04-01T05:41:56.572Z,97020.89
2023-04-01T05:44:48.625Z,97016.38
2023-04-01T05:47:26.148Z,97016.61
2023-04-01T05:50:18.587Z,97013.05
2023-04-01T05:53:10.651Z,97017.07
2023-04-01T05:56:06.196Z,97015.83
2023-04-01T05:58:56.625Z,97016.82
2023-04-01T06:01:48.538Z,97020.20
2023-04-01T06:04:42.232Z,97019.70
2023-04-01T06:07:34.384Z,97027.21
2023-04-01T06:10:52.490Z,97026.70
2023-04-01T06:14:06.555Z,97033.91
2023-04-01T06:16:56.715Z,97031.70
2023-04-01T06:19:53.783Z,97034.66
2023-04-01T06:23:09.020Z,97040.23
2023-04-01T06:25:53.026Z,97039.10
2023-04-01T06:28:45.221Z,97044.41
2023-04-01T06:31:33.687Z,97043.63
2023-04-01T06:34:24.445Z,97039.79
2023-04-01T06:37:26.845Z,97041.70
2023-04-01T06:40:41.272Z,97045.12
2023-04-01T06:43:40.504Z,97042.30
2023-04-01T06:46:22.039Z,97042.44
2023-04-01T06:49:30.557Z,97045.43
2023-04-01T06:52:20.620Z,97043.66
2023-04-01T06:55:02.178Z,97039.77
2023-04-01T06:57:41.985Z,97039.58
2023-04-01T07:00:37.611Z,97042.71
2023-04-01T07:03:21.709Z,97038.96
2023-04-01T07:06:18.261Z,97043.41
2023-04-01T07:09:15.884Z,97046.11
2023-04-01T07:12:18.473Z,97042.84
2023-04-01T07:15:21.278Z,97046.46
2023-04-01T07:18:18.263Z,97052.04
2023-04-01T07:21:21.642Z,97054.34
2023-04-01T07:24:11.183Z,97053.54
2023-04-01T07:26:43.264Z,97058.07
2023-04-01T07:29:36.118Z,97060.25
2023-04-01T07:32:42.296Z,97057.91
2023-04-01T07:35:23.803Z,97061.94
2023-04-01T07:38:25.233Z,97060.75
2023-04-01T07:41:12.490Z,97059.63
2023-04-01T07:44:18.292Z,97061.74
2023-04-01T07:47:13.365Z,97066.98
2023-04-01T07:50:01.106Z,97070.60
2023-04-01T07:53:03.196Z,97075.15
2023-04-01T07:55:43.504Z,97078.13
2023-04-01T07:58:33.783Z,97076.90
2023-04-01T08:01:19.933Z,97082.73
2023-04-01T08:04:21.400Z,97079.89
2023-04-01T08:07:17.256Z,97083.02
2023-04-01T08:10:18.616Z,97081.62
2023-04-01T08:13:12.829Z,97083.36
2023-04-01T08:16:04.815Z,97084.25
2023-04-01T08:18:49.012Z,97087.73
2023-04-01T08:21:26.224Z,97086.24
2023-04-01T08:24:08.552Z,97091.79
2023-04-01T08:26:47.355Z,97092.05
2023-04-01T08:29:28.415Z,97090.08
2023-04-01T08:32:08.970Z,97086.73
2023-04-01T08:34:49.387Z,97088.18
2023-04-01T08:37:43.805Z,97087.71
2023-04-01T08:40:41.781Z,97087.77
2023-04-01T08:44:07.012Z,97090.68
2023-04-01T08:47:20.234Z,97089.58
2023-04-01T08:50:28.701Z,97088.45
2023-04-01T08:53:24.749Z,97088.30
2023-04-01T08:56:19.683Z,97084.69
2023-04-01T08:59:23.758Z,97085.43
2023-04-01T09:02:38.652Z,97085.36
2023-04-01T09:05:43.403Z,97084.55
2023-04-01T09:08:35.456Z,97088.84
2023-04-01T09:11:40.322Z,97087.65
2023-04-01T09:14:26.940Z,97090.67
2023-04-01T09:17:32.125Z,97084.55
2023-04-01T09:20:41.420Z,97082.35
2023-04-01T09:23:49.098Z,97091.17
2023-04-01T09:26:43.566Z,97087.48
2023-04-01T09:29:59.183Z,97088.23
2023-04-01T09:33:10.839Z,97091.63
2023-04-01T09:35:50.398Z,97093.16
2023-04-01T09:38:56.766Z,97099.00
2023-04-01T09:42:08.255Z,97099.62
2023-04-01T09:45:02.420Z,97099.16
2023-04-01T09:48:08.107Z,97102.63
2023-04-01T09:50:54.323Z,97099.58
2023-04-01T09:54:04.164Z,97096.25
2023-04-01T09:57:11.479Z,97097.77
2023-04-01T10:00:13.352Z,97098.78
2023-04-01T10:03:38.603Z,97099.81
2023-04-01T10:06:59.496Z,97097.11
2023-04-01T10:10:18.714Z,97099.17
2023-04-01T10:13:24.068Z,97094.36
2023-04-01T10:16:11.755Z,97096.84
2023-04-01T10:19:24.276Z,97098.84
2023-04-01T10:22:36.595Z,97100.59
2023-04-01T10:25:29.414Z,97094.20
2023-04-01T10:28:57.211Z,97095.39
2023-04-01T10:32:13.364Z,97093.27
2023-04-01T10:35:16.529Z,97092.70
2023-04-01T10:38:22.149Z,97092.37
2023-04-01T10:41:48.883Z,97090.69
2023-04-01T10:45:24.756Z,97091.90
2023-04-01T10:48:31.890Z,97092.90
2023-04-01T10:51:53.981Z,97093.38
2023-04-01T10:54:48.347Z,97092.42
2023-04-01T10:57:52.464Z,97096.13
2023-04-01T11:00:39.350Z,97098.55
2023-04-01T11:03:59.547Z,97098.73
2023-04-01T11:07:12.867Z,97099.94
2023-04-01T11:10:22.427Z,97092.66
2023-04-01T11:13:31.532Z,97094.00
2023-04-01T11:16:52.838Z,97092.39
2023-04-01T11:20:27.954Z,97096.28
2023-04-01T11:24:04.578Z,97100.00
2023-04-01T11:27:13.172Z,97089.58
2023-04-01T11:30:22.055Z,97090.70
2023-04-01T11:33:21.541Z,97087.63
2023-04-01T11:36:08.863Z,97089.41
2023-04-01T11:39:13.545Z,97087.38
2023-04-01T11:42:17.168Z,97088.78
2023-04-01T11:45:03.948Z,97090.55
2023-04-01T11:48:25.919Z,97088.06
2023-04-01T11:51:35.350Z,97087.61
2023-04-01T11:54:56.964Z,97085.45
2023-04-01T11:58:00.036Z,97086.55
2023-04-01T12:01:06.033Z,97086.48
2023-04-01T12:04:39.996Z,97093.95
2023-04-01T12:07:54.274Z,97092.89
2023-04-01T12:10:57.444Z,97095.42
2023-04-01T12:13:58.049Z,97091.98
2023-04-01T12:17:00.662Z,97093.02
2023-04-01T12:20:00.540Z,97094.35
2023-04-01T12:22:50.979Z,97094.27
2023-04-01T12:25:53.754Z,97094.50
2023-04-01T12:28:59.456Z,97096.96
2023-04-01T12:31:59.554Z,97093.41
2023-04-01T12:35:21.247Z,97094.35
2023-04-01T12:38:28.724Z,97093.25
2023-04-01T12:41:29.662Z,97097.81
2023-04-01T12:44:36.284Z,97095.48
2023-04-01T12:47:47.560Z,97097.17
2023-04-01T12:50:42.514Z,97096.23
2023-04-01T12:53:36.211Z,97092.60
2023-04-01T12:56:16.543Z,97095.10
2023-04-01T12:59:21.639Z,97103.14
2023-04-01T13:02:22.854Z,97098.75
2023-04-01T13:05:18.334Z,97093.10
2023-04-01T13:08:17.683Z,97098.80
2023-04-01T13:11:10.832Z,97097.69
2023-04-01T13:14:29.175Z,97104.02
2023-04-01T13:17:31.851Z,97106.61
2023-04-01T13:20:17.044Z,97113.31
2023-04-01T13:23:08.748Z,97120.17
2023-04-01T13:26:15.120Z,97125.63
2023-04-01T13:28:59.113Z,97126.16
2023-04-01T13:32:01.542Z,97124.41
2023-04-01T13:35:23.165Z,97126.04
2023-04-01T13:38:23.376Z,97129.48
2023-04-01T13:41:07.738Z,97129.59
2023-04-01T13:44:09.016Z,97126.64
2023-04-01T13:47:02.769Z,97124.98
2023-04-01T13:50:06.476Z,97131.48
2023-04-01T13:53:08.409Z,97129.59
2023-04-01T13:56:05.884Z,97137.41
2023-04-01T13:59:09.946Z,97141.95
2023-04-01T14:01:50.929Z,97143.08
2023-04-01T14:04:43.678Z,97145.77
2023-04-01T14:07:42.157Z,97152.41
2023-04-01T14:10:20.809Z,97158.71
2023-04-01T14:13:14.766Z,97175.05
2023-04-01T14:16:15.071Z,97176.98
2023-04-01T14:19:01.520Z,97180.71
2023-04-01T14:22:00.781Z,97180.69
2023-04-01T14:24:57.374Z,97178.92
2023-04-01T14:27:56.147Z,97182.74
2023-04-01T14:30:53.584Z,97182.48
2023-04-01T14:36:23.368Z,97189.78
2023-04-01T14:39:08.839Z,97192.84
2023-04-01T14:42:06.065Z,97191.77
2023-04-01T14:45:22.134Z,97195.32
2023-04-01T14:48:25.335Z,97198.07
2023-04-01T14:51:22.950Z,97198.27
2023-04-01T14:54:23.633Z,97194.10
2023-04-01T14:57:19.671Z,97194.26
2023-04-01T15:00:19.200Z,97195.96
2023-04-01T15:03:21.103Z,97197.55
2023-04-01T15:06:31.014Z,97197.53
2023-04-01T15:09:32.361Z,97201.30
2023-04-01T15:12:33.062Z,97197.95
2023-04-01T15:15:25.914Z,97200.69
2023-04-01T15:18:16.568Z,97199.23
2023-04-01T15:21:20.923Z,97203.55
2023-04-01T15:24:23.427Z,97204.53
2023-04-01T15:27:30.101Z,97204.27
2023-04-01T15:30:40.390Z,97206.54
2023-04-01T15:33:47.836Z,97211.14
2023-04-01T15:36:46.998Z,97211.61
2023-04-01T15:39:26.560Z,97214.52
2023-04-01T15:42:15.716Z,97218.77
2023-04-01T15:45:19.925Z,97217.75
2023-04-01T15:48:29.374Z,97218.67
2023-04-01T15:51:50.684Z,97222.59
2023-04-01T15:55:05.168Z,97223.48
2023-04-01T15:57:50.081Z,97229.01
2023-04-01T16:00:30.237Z,97228.92
2023-04-01T16:03:32.723Z,97236.91
2023-04-01T16:06:31.913Z,97235.69
2023-04-01T16:09:16.868Z,97239.41
2023-04-01T16:11:56.685Z,97239.36
2023-04-01T16:14:44.372Z,97236.98
2023-04-01T16:17:38.683Z,97237.15
2023-04-01T16:20:22.208Z,97238.83
2023-04-01T16:23:03.934Z,97242.23
2023-04-01T16:25:43.906Z,97242.15
2023-04-01T16:28:25.463Z,97245.52
2023-04-01T16:31:13.960Z,97245.41
2023-04-01T16:33:53.525Z,97250.27
2023-04-01T16:36:32.892Z,97254.86
2023-04-01T16:39:24.558Z,97262.68
2023-04-01T16:42:24.142Z,97263.49
2023-04-01T16:45:01.360Z,97270.42
2023-04-01T16:47:36.371Z,97276.17
2023-04-01T16:50:20.794Z,97281.19
2023-04-01T16:53:12.171Z,97282.89
2023-04-01T16:55:53.913Z,97286.55
2023-04-01T16:59:03.683Z,97292.48
2023-04-01T17:01:46.757Z,97300.41
2023-04-01T17:04:37.014Z,97303.83
2023-04-01T17:07:40.929Z,97305.30
2023-04-01T17:10:47.046Z,97316.21
2023-04-01T17:13:48.157Z,97320.72
2023-04-01T17:16:58.857Z,97324.34
2023-04-01T17:20:34.032Z,97328.96
2023-04-01T17:23:28.426Z,97335.04
2023-04-01T17:26:16.462Z,97338.98
2023-04-01T17:28:54.137Z,97338.23
2023-04-01T17:31:55.106Z,97341.14
2023-04-01T17:34:41.916Z,97344.02
2023-04-01T17:37:32.973Z,97343.91
2023-04-01T17:40:22.946Z,97352.04
2023-04-01T17:43:24.730Z,97352.83
2023-04-01T17:46:04.463Z,97362.95
2023-04-01T17:48:51.582Z,97365.19
2023-04-01T17:51:36.395Z,97371.77
2023-04-01T17:54:22.343Z,97375.70
2023-04-01T17:57:11.667Z,97376.27
2023-04-01T17:59:52.292Z,97379.64
2023-04-01T18:02:30.209Z,97383.60
2023-04-01T18:05:49.839Z,97385.13
2023-04-01T18:08:57.265Z,97389.39
2023-04-01T18:12:00.754Z,97395.09
2023-04-01T18:15:08.627Z,97394.84
2023-04-01T18:17:58.556Z,97400.63
2023-04-01T18:20:46.252Z,97402.60
2023-04-01T18:23:52.219Z,97405.63
2023-04-01T18:27:02.951Z,97415.82
2023-04-01T18:29:57.142Z,97419.84
2023-04-01T18:32:54.011Z,97419.83
2023-04-01T18:35:56.697Z,97423.08
2023-04-01T18:38:36.770Z,97423.77
2023-04-01T18:41:37.346Z,97432.13
2023-04-01T18:44:40.639Z,97431.46
2023-04-01T18:47:46.831Z,97434.55
2023-04-01T18:51:03.155Z,97437.33
2023-04-01T18:53:44.856Z,97438.23
2023-04-01T18:56:39.813Z,97447.10
2023-04-01T18:59:28.461Z,97443.08
2023-04-01T19:02:16.008Z,97446.36
2023-04-01T19:05:11.633Z,97444.25
2023-04-01T19:08:20.702Z,97452.73
2023-04-01T19:11:12.032Z,97453.16
2023-04-01T19:13:55.590Z,97454.15
2023-04-01T19:16:56.239Z,97460.84
2023-04-01T19:19:57.697Z,97468.39
2023-04-01T19:23:09.713Z,97472.45
2023-04-01T19:26:05.124Z,97472.57
2023-04-01T19:28:57.588Z,97471.14
2023-04-01T19:32:09.439Z,97478.06
2023-04-01T19:35:06.432Z,97481.84
2023-04-01T19:38:04.963Z,97485.81
2023-04-01T19:41:06.179Z,97485.23
2023-04-01T19:44:01.525Z,97484.30
2023-04-01T19:46:39.108Z,97486.85
2023-04-01T19:49:48.262Z,97488.77
2023-04-01T19:52:49.758Z,97494.59
2023-04-01T19:55:38.152Z,97493.20
2023-04-01T19:58:28.273Z,97496.94
2023-04-01T20:01:16.900Z,97504.95
2023-04-01T20:04:05.676Z,97507.59
2023-04-01T20:07:06.483Z,97514.05
2023-04-01T20:10:00.297Z,97513.02
2023-04-01T20:12:45.566Z,97517.16
2023-04-01T20:15:33.819Z,97517.04
2023-04-01T20:18:21.952Z,97519.34
2023-04-01T20:21:02.955Z,97523.45
2023-04-01T20:23:43.901Z,97521.67
2023-04-01T20:26:25.191Z,97524.31
2023-04-01T20:29:17.205Z,97521.48
2023-04-01T20:32:25.435Z,97526.36
2023-04-01T20:35:38.838Z,97531.73
2023-04-01T20:38:30.007Z,97533.64
2023-04-01T20:41:10.554Z,97538.56
2023-04-01T20:44:04.592Z,97537.17
2023-04-01T20:46:48.172Z,97538.55
2023-04-01T20:49:51.533Z,97538.67
2023-04-01T20:52:40.792Z,97536.58
2023-04-01T20:56:03.473Z,97541.68
2023-04-01T20:58:55.249Z,97541.06
2023-04-01T21:01:47.090Z,97541.11
2023-04-01T21:04:39.740Z,97547.07
2023-04-01T21:07:31.056Z,97550.23
2023-04-01T21:10:40.743Z,97551.84
2023-04-01T21:13:27.191Z,97556.04
2023-04-01T21:16:16.308Z,97555.70
2023-04-01T21:19:04.403Z,97556.93
2023-04-01T21:22:01.751Z,97558.11
2023-04-01T21:25:08.332Z,97558.95
2023-04-01T21:28:02.652Z,97564.77
2023-04-01T21:30:47.702Z,97563.09
2023-04-01T21:34:05.026Z,97568.65
2023-04-01T21:36:56.621Z,97567.96
2023-04-01T21:40:05.862Z,97573.33
2023-04-01T21:42:50.993Z,97575.64
2023-04-01T21:45:52.782Z,97578.14
2023-04-01T21:48:54.855Z,97576.92
2023-04-01T21:51:56.706Z,97577.79
2023-04-01T21:54:46.275Z,97576.58
2023-04-01T21:58:13.655Z,97582.27
2023-04-01T22:00:55.588Z,97584.33
2023-04-01T22:04:08.835Z,97586.31
2023-04-01T22:07:08.626Z,97588.95
2023-04-01T22:09:53.945Z,97587.73
2023-04-01T22:12:50.218Z,97588.95
2023-04-01T22:15:47.359Z,97591.03
2023-04-01T22:18:46.273Z,97592.19
2023-04-01T22:21:52.898Z,97593.91
2023-04-01T22:24:35.043Z,97596.73
2023-04-01T22:27:32.795Z,97600.59
2023-04-01T22:30:30.123Z,97598.13
2023-04-01T22:33:31.000Z,97599.04
2023-04-01T22:36:31.329Z,97598.52
2023-04-01T22:39:19.496Z,97602.88
2023-04-01T22:42:33.673Z,97607.94
2023-04-01T22:45:35.759Z,97608.09
2023-04-01T22:48:34.782Z,97613.98
2023-04-01T22:51:21.027Z,97613.85
2023-04-01T22:54:21.770Z,97615.95
2023-04-01T22:57:02.519Z,97615.96
2023-04-01T22:59:46.807Z,97620.65
2023-04-01T23:02:41.587Z,97622.20
2023-04-01T23:05:25.281Z,97622.92
2023-04-01T23:08:50.776Z,97626.75
2023-04-01T23:11:50.316Z,97631.65
2023-04-01T23:14:48.904Z,97632.86
2023-04-01T23:17:56.145Z,97633.18
2023-04-01T23:21:00.966Z,97633.33
2023-04-01T23:24:07.110Z,97633.48
2023-04-01T23:27:05.566Z,97633.28
2023-04-01T23:29:57.567Z,97634.14
2023-04-01T23:32:49.729Z,97636.58
2023-04-01T23:35:50.556Z,97640.02
2023-04-01T23:38:24.283Z,97645.55
2023-04-01T23:41:25.508Z,97646.53
2023-04-01T23:44:07.061Z,97646.17
2023-04-01T23:46:44.459Z,97648.64
2023-04-01T23:49:41.845Z,97648.98
2023-04-01T23:52:37.825Z,97652.30
2023-04-01T23:55:33.650Z,97655.77
2023-04-01T23:58:28.316Z,97661.34
